Time;durP1;ratioP1;P1;durP2;ratioP2;P2;SDS_P1;SDS_P2;PMS_P1;PMS_P2;Temp;Humidity;BMP_temperature;BMP_pressure;BME280_temperature;BME280_humidity;BME280_pressure;Samples;Min_cycle;Max_cycle;Signal;HPM_P1;HPM_P2
2021/07/14 00:00:09;;;;;;;;;;;;;;;22.35;60.19;99859.16;2092778;28;20351;-72
2021/07/14 00:01:11;;;;;;;;;;;;;;;22.34;60.09;99851.94;2089689;28;19915;-72
2021/07/14 00:02:13;;;;;;;;;;;;;;;22.35;60.32;99859.16;2090602;28;19975;-72
2021/07/14 00:03:13;;;;;;;;;;;;;;;22.36;60.32;99849.88;2085429;28;19920;-71
2021/07/14 00:04:14;;;;;;;;;;;;;;;22.35;60.37;99850.94;2079812;28;19912;-71
2021/07/14 00:05:16;;;;;;;;;;;;;;;22.34;60.21;99857.44;2087586;28;19916;-71
2021/07/14 00:06:17;;;;;;;;;;;;;;;22.35;60.52;99853.69;2088548;28;20004;-71
2021/07/14 00:07:18;;;;;;;;;;;;;;;22.35;60.17;99853.69;2083226;28;20430;-71
2021/07/14 00:08:18;;;;;;;;;;;;;;;22.34;60.34;99860.19;2085907;28;19966;-71
2021/07/14 00:09:19;;;;;;;;;;;;;;;22.33;60.36;99861.22;2086579;28;20461;-71
2021/07/14 00:10:40;;;;;;;;;;;;;;;22.33;60.41;99856.59;2087825;28;19913;-71
2021/07/14 00:11:52;;;;;;;;;;;;;;;22.33;60.41;99861.22;2087206;28;19917;-71
2021/07/14 00:12:59;;;;;;;;;;;;;;;22.33;60.36;99848.34;2088411;28;19913;-71
2021/07/14 00:14:16;;;;;;;;;;;;;;;22.33;60.35;99855.75;2090944;28;19966;-72
2021/07/14 00:22:07;;;;;;;;;;;;;;;22.33;60.23;99855.75;2073767;28;19917;-71
2021/07/14 00:23:08;;;;;;;;;;;;;;;22.32;60.42;99865.00;2079256;28;19913;-71
2021/07/14 00:24:09;;;;;;;;;;;;;;;22.33;60.27;99861.22;2088355;28;19917;-71
2021/07/14 00:25:14;;;;;;;;;;;;;;;22.32;60.38;99857.63;2086592;28;19905;-71
2021/07/14 00:26:14;;;;;;;;;;;;;;;22.33;60.18;99853.00;2087060;28;20033;-71
2021/07/14 00:27:16;;;;;;;;;;;;;;;22.33;60.42;99861.22;2084504;28;19914;-71
2021/07/14 00:28:17;;;;;;;;;;;;;;;22.33;60.39;99866.72;2087965;28;19935;-72
2021/07/14 00:29:18;;;;;;;;;;;;;;;22.32;60.37;99854.91;2087613;28;19912;-71
2021/07/14 00:30:30;;;;;;;;;;;;;;;22.33;60.23;99863.97;2088917;28;19948;-71
2021/07/14 00:31:30;;;;;;;;;;;;;;;22.32;60.40;99859.50;2087731;28;20002;-71
2021/07/14 00:32:31;;;;;;;;;;;;;;;22.31;60.54;99853.16;2087619;28;19917;-71
2021/07/14 00:33:32;;;;;;;;;;;;;;;22.31;60.32;99855.06;2087866;28;19959;-72
2021/07/14 00:34:33;;;;;;;;;;;;;;;22.31;60.29;99860.56;2087671;28;19963;-71
2021/07/14 00:35:34;;;;;;;;;;;;;;;22.30;60.28;99861.59;2089586;28;19959;-72
2021/07/14 00:36:35;;;;;;;;;;;;;;;22.31;60.48;99857.81;2087319;28;19920;-71
2021/07/14 00:37:35;;;;;;;;;;;;;;;22.29;60.15;99865.34;2079934;28;19925;-72
2021/07/14 00:38:36;;;;;;;;;;;;;;;22.29;60.42;99859.88;2081867;28;19920;-71
2021/07/14 00:39:37;;;;;;;;;;;;;;;22.30;60.27;99862.44;2088169;28;19920;-72
2021/07/14 00:40:38;;;;;;;;;;;;;;;22.30;60.30;99861.59;2087894;28;20291;-71
2021/07/14 00:41:38;;;;;;;;;;;;;;;22.30;60.28;99867.94;2087523;28;19966;-71
2021/07/14 00:42:40;;;;;;;;;;;;;;;22.30;60.34;99858.84;2087574;28;19939;-71
2021/07/14 00:43:41;;;;;;;;;;;;;;;22.29;60.29;99855.22;2086720;28;19929;-71
2021/07/14 00:44:41;;;;;;;;;;;;;;;22.30;60.25;99856.09;2087594;28;19925;-71
2021/07/14 00:45:42;;;;;;;;;;;;;;;22.29;60.38;99866.22;2089136;28;20437;-72
2021/07/14 00:46:46;;;;;;;;;;;;;;;22.31;60.31;99855.06;2087906;28;20336;-71
2021/07/14 00:47:49;;;;;;;;;;;;;;;22.29;60.42;99860.72;2079421;28;19963;-72
2021/07/14 00:48:51;;;;;;;;;;;;;;;22.29;60.40;99857.13;2086088;28;19913;-71
2021/07/14 00:49:51;;;;;;;;;;;;;;;22.30;60.28;99861.59;2087589;28;20338;-72
2021/07/14 00:50:52;;;;;;;;;;;;;;;22.30;60.34;99861.59;2082966;28;19953;-71
2021/07/14 00:51:53;;;;;;;;;;;;;;;22.29;60.17;99860.72;2080557;28;19913;-71
2021/07/14 00:52:54;;;;;;;;;;;;;;;22.29;60.46;99854.38;2085838;28;19913;-72
2021/07/14 00:53:55;;;;;;;;;;;;;;;22.27;60.38;99857.31;2087438;28;20316;-72
2021/07/14 00:54:59;;;;;;;;;;;;;;;22.28;60.15;99858.16;2086925;28;19955;-72
2021/07/14 00:55:59;;;;;;;;;;;;;;;22.29;60.42;99854.38;2086461;28;20368;-72
2021/07/14 00:57:00;;;;;;;;;;;;;;;22.28;60.23;99849.94;2087236;28;20316;-72
2021/07/14 00:58:01;;;;;;;;;;;;;;;22.26;60.39;99850.94;2087737;28;19956;-71
2021/07/14 00:59:01;;;;;;;;;;;;;;;22.28;60.18;99852.69;2086899;28;19947;-71
2021/07/14 01:00:02;;;;;;;;;;;;;;;22.26;60.40;99850.94;2087352;28;19956;-72
2021/07/14 01:01:03;;;;;;;;;;;;;;;22.28;60.38;99858.16;2086769;28;19917;-71
2021/07/14 01:02:03;;;;;;;;;;;;;;;22.28;60.41;99860.91;2087094;28;20055;-72
2021/07/14 01:03:04;;;;;;;;;;;;;;;22.28;60.36;99858.16;2085566;28;20006;-71
2021/07/14 01:04:16;;;;;;;;;;;;;;;22.28;60.22;99864.50;2087489;28;19912;-72
2021/07/14 01:05:20;;;;;;;;;;;;;;;22.28;60.35;99860.91;2082965;28;19919;-72
2021/07/14 01:06:23;;;;;;;;;;;;;;;22.26;60.29;99856.44;2088281;28;19921;-72
2021/07/14 01:07:25;;;;;;;;;;;;;;;22.28;60.12;99855.41;2085964;28;20386;-71
2021/07/14 01:08:49;;;;;;;;;;;;;;;22.26;60.39;99861.94;2081216;28;20283;-71
2021/07/14 01:09:52;;;;;;;;;;;;;;;22.29;60.21;99868.94;2070262;28;19913;-71
2021/07/14 01:11:02;;;;;;;;;;;;;;;22.28;60.24;99870.00;2086595;28;19958;-71
2021/07/14 01:12:08;;;;;;;;;;;;;;;22.28;60.44;99858.16;2087344;28;19923;-71
2021/07/14 01:13:27;;;;;;;;;;;;;;;22.31;60.30;99871.53;2095940;28;19944;-72
2021/07/14 01:14:35;;;;;;;;;;;;;;;22.28;60.35;99866.41;2080174;28;20375;-71
2021/07/14 01:15:44;;;;;;;;;;;;;;;22.26;60.18;99867.41;2086146;28;19916;-72
2021/07/14 01:16:46;;;;;;;;;;;;;;;22.26;60.36;99858.34;2087251;28;20079;-72
2021/07/14 01:17:50;;;;;;;;;;;;;;;22.26;60.42;99872.06;2086287;28;20004;-72
2021/07/14 01:18:53;;;;;;;;;;;;;;;22.26;60.13;99870.16;2087576;28;19959;-72
2021/07/14 01:20:03;;;;;;;;;;;;;;;22.25;60.38;99870.34;2087992;28;19916;-72
2021/07/14 01:21:06;;;;;;;;;;;;;;;22.25;60.36;99873.94;2089428;28;20649;-72
2021/07/14 01:22:19;;;;;;;;;;;;;;;22.25;60.16;99871.22;2091126;28;19919;-72
2021/07/14 01:23:40;;;;;;;;;;;;;;;22.25;60.37;99871.22;2079442;28;19913;-72
2021/07/14 01:25:01;;;;;;;;;;;;;;;22.24;60.41;99869.50;2078106;28;20361;-71
2021/07/14 01:26:05;;;;;;;;;;;;;;;22.24;60.25;99875.00;2087784;28;19909;-72
2021/07/14 01:27:12;;;;;;;;;;;;;;;22.25;60.24;99876.69;2084956;28;19913;-72
2021/07/14 01:28:13;;;;;;;;;;;;;;;22.26;60.38;99869.31;2079146;28;19917;-72
2021/07/14 01:29:15;;;;;;;;;;;;;;;22.24;60.23;99875.00;2085035;28;20386;-72
2021/07/14 01:30:16;;;;;;;;;;;;;;;22.24;60.39;99864.03;2086778;28;19912;-70
2021/07/14 01:31:20;;;;;;;;;;;;;;;22.26;60.33;99872.91;2087180;28;20008;-70
2021/07/14 01:32:23;;;;;;;;;;;;;;;22.26;60.27;99872.06;2086412;28;19913;-71
2021/07/14 01:33:26;;;;;;;;;;;;;;;22.25;60.34;99870.34;2087581;28;19967;-71
2021/07/14 01:34:28;;;;;;;;;;;;;;;22.23;60.27;99862.28;2082806;28;19913;-70
2021/07/14 01:35:33;;;;;;;;;;;;;;;22.23;60.33;99867.78;2087543;28;19913;-71
2021/07/14 01:36:36;;;;;;;;;;;;;;;22.23;60.13;99861.44;2082132;28;20026;-71
2021/07/14 01:37:37;;;;;;;;;;;;;;;22.22;60.32;99863.34;2083900;28;19912;-71
2021/07/14 01:38:39;;;;;;;;;;;;;;;22.23;60.22;99861.44;2078819;28;19913;-71
2021/07/14 01:39:41;;;;;;;;;;;;;;;22.22;60.37;99860.59;2084780;28;20418;-71
2021/07/14 01:40:42;;;;;;;;;;;;;;;22.22;60.24;99860.59;2087130;28;19966;-71
2021/07/14 01:41:43;;;;;;;;;;;;;;;22.22;60.37;99862.44;2081683;28;19967;-72
2021/07/14 01:42:45;;;;;;;;;;;;;;;22.23;60.31;99855.94;2082293;28;19920;-72
2021/07/14 01:43:53;;;;;;;;;;;;;;;22.22;60.21;99855.09;2079443;28;20252;-72
2021/07/14 01:44:54;;;;;;;;;;;;;;;22.22;60.48;99856.97;2086781;28;19920;-72
2021/07/14 01:45:56;;;;;;;;;;;;;;;22.22;60.15;99855.09;2087663;28;19916;-71
2021/07/14 01:47:00;;;;;;;;;;;;;;;22.23;60.35;99861.44;2087555;28;19913;-72
2021/07/14 01:48:01;;;;;;;;;;;;;;;22.22;60.43;99857.84;2087700;28;19920;-72
2021/07/14 01:49:06;;;;;;;;;;;;;;;22.21;60.40;99858.84;2087768;28;19917;-72
2021/07/14 01:50:07;;;;;;;;;;;;;;;22.23;60.38;99854.06;2087950;28;19912;-72
2021/07/14 01:51:08;;;;;;;;;;;;;;;22.23;60.18;99858.69;2084799;28;19913;-72
2021/07/14 01:52:11;;;;;;;;;;;;;;;22.22;60.37;99860.59;2088047;28;19912;-72
2021/07/14 01:53:11;;;;;;;;;;;;;;;22.22;60.40;99855.09;2087480;28;19916;-72
2021/07/14 01:54:13;;;;;;;;;;;;;;;22.24;60.29;99866.75;2087870;28;19912;-71
2021/07/14 01:55:14;;;;;;;;;;;;;;;22.23;60.20;99854.06;2086424;28;20334;-72
2021/07/14 01:56:14;;;;;;;;;;;;;;;22.21;60.37;99856.09;2087280;28;19964;-71
2021/07/14 01:57:16;;;;;;;;;;;;;;;22.21;60.33;99847.88;2089993;28;20393;-72
2021/07/14 01:58:17;;;;;;;;;;;;;;;22.22;60.32;99852.34;2089194;28;19917;-71
2021/07/14 01:59:18;;;;;;;;;;;;;;;22.22;60.32;99849.59;2087814;28;19912;-72
2021/07/14 02:00:19;;;;;;;;;;;;;;;22.22;60.41;99844.13;2087457;28;19916;-72
2021/07/14 02:01:20;;;;;;;;;;;;;;;22.21;60.33;99853.38;2087031;28;19920;-72
2021/07/14 02:02:23;;;;;;;;;;;;;;;22.20;60.15;99842.56;2090199;28;19921;-71
2021/07/14 02:04:31;;;;;;;;;;;;;;;22.20;60.13;99857.16;2085946;28;19913;-71
2021/07/14 02:05:36;;;;;;;;;;;;;;;22.20;60.14;99857.16;2081184;28;20422;-71
2021/07/14 02:06:38;;;;;;;;;;;;;;;22.19;60.17;99855.38;2082494;28;20000;-71
2021/07/14 02:07:38;;;;;;;;;;;;;;;22.19;60.30;99847.16;2087065;28;20371;-71
2021/07/14 02:08:40;;;;;;;;;;;;;;;22.20;60.16;99846.19;2087433;28;20291;-71
2021/07/14 02:09:41;;;;;;;;;;;;;;;22.20;60.38;99850.81;2087455;28;19913;-71
2021/07/14 02:10:43;;;;;;;;;;;;;;;22.20;60.39;99856.31;2087010;28;20420;-71
2021/07/14 02:11:45;;;;;;;;;;;;;;;22.19;60.17;99855.38;2086405;28;19976;-71
2021/07/14 02:12:47;;;;;;;;;;;;;;;22.20;60.10;99856.31;2094536;28;19916;-71
2021/07/14 02:13:49;;;;;;;;;;;;;;;22.19;60.19;99855.38;2095070;28;20011;-71
2021/07/14 02:14:55;;;;;;;;;;;;;;;22.20;60.37;99856.31;2078421;28;19913;-72
2021/07/14 02:15:56;;;;;;;;;;;;;;;22.18;60.18;99864.66;2078995;28;19913;-71
2021/07/14 02:16:58;;;;;;;;;;;;;;;22.19;60.40;99855.38;2083114;28;19948;-71
2021/07/14 02:18:07;;;;;;;;;;;;;;;22.19;60.16;99855.38;2087435;28;19917;-71
2021/07/14 02:19:08;;;;;;;;;;;;;;;22.19;60.23;99860.03;2078454;28;19913;-71
2021/07/14 02:20:14;;;;;;;;;;;;;;;22.18;60.35;99853.69;2086162;28;19920;-71
2021/07/14 02:21:15;;;;;;;;;;;;;;;22.18;60.16;99853.69;2086026;28;20008;-71
2021/07/14 02:22:15;;;;;;;;;;;;;;;22.19;60.17;99855.38;2087357;28;19919;-71
2021/07/14 02:23:15;;;;;;;;;;;;;;;22.18;60.23;99853.69;2086466;28;19919;-71
2021/07/14 02:24:16;;;;;;;;;;;;;;;22.18;60.32;99853.69;2086466;28;19913;-71
2021/07/14 02:25:17;;;;;;;;;;;;;;;22.19;60.29;99860.88;2086688;28;19966;-71
2021/07/14 02:26:17;;;;;;;;;;;;;;;22.19;60.22;99855.38;2086793;28;19912;-71
2021/07/14 02:27:18;;;;;;;;;;;;;;;22.19;60.27;99860.03;2087149;28;19912;-71
2021/07/14 02:28:18;;;;;;;;;;;;;;;22.19;60.29;99855.38;2085177;28;19956;-71
2021/07/14 02:29:19;;;;;;;;;;;;;;;22.20;60.37;99856.31;2086826;28;20006;-71
2021/07/14 02:30:20;;;;;;;;;;;;;;;22.19;60.16;99866.38;2086208;28;19920;-71
2021/07/14 02:31:20;;;;;;;;;;;;;;;22.19;60.33;99857.28;2086681;28;21090;-71
2021/07/14 02:32:21;;;;;;;;;;;;;;;22.19;60.37;99860.03;2086179;28;19928;-71
2021/07/14 02:33:21;;;;;;;;;;;;;;;22.19;60.34;99866.38;2086727;28;19917;-72
2021/07/14 02:34:22;;;;;;;;;;;;;;;22.19;60.21;99866.38;2085597;28;20078;-71
2021/07/14 02:35:23;;;;;;;;;;;;;;;22.18;60.17;99863.81;2078708;28;19913;-71
2021/07/14 02:36:24;;;;;;;;;;;;;;;22.18;60.20;99864.66;2084835;28;19917;-71
2021/07/14 02:37:28;;;;;;;;;;;;;;;22.19;60.24;99866.38;2086981;28;19912;-71
2021/07/14 02:38:32;;;;;;;;;;;;;;;22.18;60.36;99861.94;2086631;28;19962;-71
2021/07/14 02:39:33;;;;;;;;;;;;;;;22.18;60.31;99864.66;2084300;28;20486;-71
2021/07/14 02:40:43;;;;;;;;;;;;;;;22.18;60.41;99861.94;2078960;28;20552;-71
2021/07/14 02:41:50;;;;;;;;;;;;;;;22.18;60.41;99866.56;2084787;28;20303;-72
2021/07/14 02:42:53;;;;;;;;;;;;;;;22.18;60.18;99864.66;2086351;28;19917;-72
2021/07/14 02:44:07;;;;;;;;;;;;;;;22.18;60.29;99870.16;2078581;28;20316;-72
2021/07/14 02:45:08;;;;;;;;;;;;;;;22.18;60.39;99864.66;2085034;28;19916;-72
2021/07/14 02:46:13;;;;;;;;;;;;;;;22.19;60.26;99860.88;2086315;28;19919;-72
2021/07/14 02:47:13;;;;;;;;;;;;;;;22.18;60.08;99861.94;2086053;28;20467;-72
2021/07/14 02:48:14;;;;;;;;;;;;;;;22.18;60.29;99861.94;2085706;28;20007;-72
2021/07/14 02:49:17;;;;;;;;;;;;;;;22.18;60.20;99861.94;2086138;28;19983;-72
2021/07/14 02:50:20;;;;;;;;;;;;;;;22.19;60.31;99860.03;2086070;28;19920;-72
2021/07/14 02:51:22;;;;;;;;;;;;;;;22.17;60.20;99862.97;2084571;28;19913;-72
2021/07/14 02:52:25;;;;;;;;;;;;;;;22.17;60.41;99868.47;2086679;28;20389;-72
2021/07/14 02:53:27;;;;;;;;;;;;;;;22.17;60.12;99860.22;2086245;28;19956;-72
2021/07/14 02:54:28;;;;;;;;;;;;;;;22.16;60.28;99861.25;2079086;28;19967;-72
2021/07/14 02:55:31;;;;;;;;;;;;;;;22.17;60.17;99873.06;2081779;28;20793;-72
2021/07/14 02:56:32;;;;;;;;;;;;;;;22.18;60.43;99863.81;2078470;28;20027;-72
2021/07/14 02:57:35;;;;;;;;;;;;;;;22.16;60.16;99872.22;2085753;28;19913;-72
2021/07/14 02:58:36;;;;;;;;;;;;;;;22.16;60.34;99866.72;2083952;28;19913;-72
2021/07/14 02:59:38;;;;;;;;;;;;;;;22.16;60.40;99866.72;2086735;28;19978;-72
2021/07/14 03:00:39;;;;;;;;;;;;;;;22.16;60.39;99874.13;2085957;28;19913;-72
2021/07/14 03:01:41;;;;;;;;;;;;;;;22.15;60.21;99876.00;2086324;28;20007;-72
2021/07/14 03:02:41;;;;;;;;;;;;;;;22.16;60.41;99872.22;2086602;28;19955;-72
2021/07/14 03:03:43;;;;;;;;;;;;;;;22.16;60.27;99872.22;2083057;28;19913;-72
2021/07/14 03:04:46;;;;;;;;;;;;;;;22.15;60.42;99870.53;2085364;28;20255;-72
2021/07/14 03:05:46;;;;;;;;;;;;;;;22.16;60.37;99860.38;2085404;28;19963;-72
2021/07/14 03:06:47;;;;;;;;;;;;;;;22.15;60.13;99865.03;2087452;28;19913;-72
2021/07/14 03:07:48;;;;;;;;;;;;;;;22.15;60.39;99870.53;2085599;28;19913;-71
2021/07/14 03:08:50;;;;;;;;;;;;;;;22.15;60.36;99864.19;2086368;28;19913;-72
2021/07/14 03:09:51;;;;;;;;;;;;;;;22.15;60.28;99867.78;2086705;28;19939;-72
2021/07/14 03:10:53;;;;;;;;;;;;;;;22.15;60.20;99865.03;2086296;28;20461;-72
2021/07/14 03:11:53;;;;;;;;;;;;;;;22.16;60.27;99866.72;2086030;28;19971;-72
2021/07/14 03:12:55;;;;;;;;;;;;;;;22.15;60.44;99865.03;2085598;28;19913;-72
2021/07/14 03:13:56;;;;;;;;;;;;;;;22.15;60.53;99858.69;2086193;28;19916;-72
2021/07/14 03:15:05;;;;;;;;;;;;;;;22.15;60.31;99859.53;2087449;28;20394;-71
2021/07/14 03:16:06;;;;;;;;;;;;;;;22.14;60.48;99857.81;2089158;28;19913;-72
2021/07/14 03:17:06;;;;;;;;;;;;;;;22.14;60.33;99852.31;2089488;28;20394;-72
2021/07/14 03:18:08;;;;;;;;;;;;;;;22.14;60.43;99857.81;2089555;28;20241;-72
2021/07/14 03:19:10;;;;;;;;;;;;;;;22.15;60.22;99859.53;2089180;28;19913;-72
2021/07/14 03:20:12;;;;;;;;;;;;;;;22.14;60.30;99857.81;2089849;28;19920;-72
2021/07/14 03:21:12;;;;;;;;;;;;;;;22.12;60.39;99862.66;2088816;28;20470;-72
2021/07/14 03:22:13;;;;;;;;;;;;;;;22.13;60.29;99861.59;2089188;28;19920;-72
2021/07/14 03:23:15;;;;;;;;;;;;;;;22.13;60.45;99855.25;2089474;28;19916;-72
2021/07/14 03:24:15;;;;;;;;;;;;;;;22.12;60.26;99857.16;2089889;28;19913;-72
2021/07/14 03:25:16;;;;;;;;;;;;;;;22.13;60.15;99861.59;2090305;28;19956;-72
2021/07/14 03:26:16;;;;;;;;;;;;;;;22.14;60.43;99863.31;2089986;28;20406;-72
2021/07/14 03:27:18;;;;;;;;;;;;;;;22.13;60.34;99861.59;2088533;28;20133;-72
2021/07/14 03:28:21;;;;;;;;;;;;;;;22.13;60.42;99856.09;2090209;28;19919;-72
2021/07/14 03:29:22;;;;;;;;;;;;;;;22.13;60.20;99867.09;2089993;28;19920;-72
2021/07/14 03:30:23;;;;;;;;;;;;;;;22.14;60.30;99863.31;2089762;28;19912;-70
2021/07/14 03:31:24;;;;;;;;;;;;;;;22.14;60.30;99862.44;2088431;28;19913;-70
2021/07/14 03:32:25;;;;;;;;;;;;;;;22.12;60.28;99865.38;2088130;28;19913;-71
2021/07/14 03:33:25;;;;;;;;;;;;;;;22.14;60.22;99865.19;2090103;28;20293;-71
2021/07/14 03:34:25;;;;;;;;;;;;;;;22.13;60.42;99867.09;2090245;28;19920;-71
2021/07/14 03:35:26;;;;;;;;;;;;;;;22.12;60.31;99870.88;2090323;28;19912;-71
2021/07/14 03:36:27;;;;;;;;;;;;;;;22.13;60.39;99866.25;2089500;28;19917;-71
2021/07/14 03:37:27;;;;;;;;;;;;;;;22.12;60.55;99859.91;2089575;28;19919;-71
2021/07/14 03:38:28;;;;;;;;;;;;;;;22.12;60.33;99870.88;2090473;28;20001;-71
2021/07/14 03:39:28;;;;;;;;;;;;;;;22.12;60.28;99865.38;2085540;28;19913;-71
2021/07/14 03:40:31;;;;;;;;;;;;;;;22.12;60.22;99870.88;2089778;28;19943;-71
2021/07/14 03:41:32;;;;;;;;;;;;;;;22.11;60.38;99866.41;2087859;28;20801;-71
2021/07/14 03:42:32;;;;;;;;;;;;;;;22.12;60.24;99870.88;2088057;28;20667;-71
2021/07/14 03:43:33;;;;;;;;;;;;;;;22.12;60.26;99873.63;2081274;28;20339;-71
2021/07/14 03:44:34;;;;;;;;;;;;;;;22.13;60.30;99872.59;2087057;28;19924;-71
2021/07/14 03:45:36;;;;;;;;;;;;;;;22.12;60.50;99876.38;2089806;28;19926;-71
2021/07/14 03:46:37;;;;;;;;;;;;;;;22.12;60.26;99876.38;2089401;28;19913;-72
2021/07/14 03:47:40;;;;;;;;;;;;;;;22.13;60.13;99878.06;2089313;28;19905;-72
2021/07/14 03:48:41;;;;;;;;;;;;;;;22.14;60.28;99884.41;2089530;28;19994;-72
2021/07/14 03:49:41;;;;;;;;;;;;;;;22.13;60.30;99883.56;2084709;28;19917;-71
2021/07/14 03:50:42;;;;;;;;;;;;;;;22.12;60.38;99876.38;2080912;28;20362;-71
2021/07/14 03:51:44;;;;;;;;;;;;;;;22.11;60.19;99880.13;2088891;28;19913;-71
2021/07/14 03:52:45;;;;;;;;;;;;;;;22.12;60.42;99883.72;2088693;28;19919;-71
2021/07/14 03:53:46;;;;;;;;;;;;;;;22.12;60.32;99886.47;2088339;28;20322;-71
2021/07/14 03:54:47;;;;;;;;;;;;;;;22.11;60.39;99877.38;2091705;28;20057;-72
2021/07/14 03:55:47;;;;;;;;;;;;;;;22.11;60.43;99882.88;2089743;28;20283;-71
2021/07/14 03:56:48;;;;;;;;;;;;;;;22.12;60.48;99886.47;2088449;28;19921;-71
2021/07/14 03:57:48;;;;;;;;;;;;;;;22.12;60.30;99891.97;2089552;28;19916;-72
2021/07/14 03:58:49;;;;;;;;;;;;;;;22.12;60.46;99891.97;2085334;28;20343;-71
2021/07/14 03:59:50;;;;;;;;;;;;;;;22.11;60.30;99880.13;2085315;28;19920;-71
2021/07/14 04:00:51;;;;;;;;;;;;;;;22.11;60.27;99893.84;2090199;28;19956;-71
2021/07/14 04:01:53;;;;;;;;;;;;;;;22.11;60.38;99891.09;2087084;28;20508;-71
2021/07/14 04:02:53;;;;;;;;;;;;;;;22.12;60.29;99889.22;2087906;28;19923;-71
2021/07/14 04:03:54;;;;;;;;;;;;;;;22.11;60.34;99896.59;2085580;28;20630;-71
2021/07/14 04:04:54;;;;;;;;;;;;;;;22.11;60.49;99895.75;2085966;28;19913;-71
2021/07/14 04:05:58;;;;;;;;;;;;;;;22.11;60.27;99896.59;2089982;28;19913;-71
2021/07/14 04:07:01;;;;;;;;;;;;;;;22.11;60.19;99902.09;2088447;28;20776;-72
2021/07/14 04:08:01;;;;;;;;;;;;;;;22.10;60.50;99894.91;2089226;28;19960;-71
2021/07/14 04:09:22;;;;;;;;;;;;;;;22.09;60.48;99895.91;2089421;28;20326;-71
2021/07/14 04:10:22;;;;;;;;;;;;;;;22.10;60.27;99905.00;2087387;28;19999;-71
2021/07/14 04:11:22;;;;;;;;;;;;;;;22.09;60.48;99904.16;2081533;28;19913;-72
2021/07/14 04:12:23;;;;;;;;;;;;;;;22.09;60.27;99904.16;2081315;28;19913;-71
2021/07/14 04:13:23;;;;;;;;;;;;;;;22.10;60.35;99899.50;2081389;28;19913;-71
2021/07/14 04:14:24;;;;;;;;;;;;;;;22.10;60.45;99905.00;2089651;28;19922;-71
2021/07/14 04:15:24;;;;;;;;;;;;;;;22.09;60.33;99897.81;2089051;28;19917;-71
2021/07/14 04:16:25;;;;;;;;;;;;;;;22.08;60.44;99896.97;2089859;28;19920;-72
2021/07/14 04:17:25;;;;;;;;;;;;;;;22.10;60.31;99905.88;2089468;28;20239;-71
2021/07/14 04:18:26;;;;;;;;;;;;;;;22.09;60.29;99909.63;2089880;28;19983;-71
2021/07/14 04:19:26;;;;;;;;;;;;;;;22.09;60.25;99912.38;2089941;28;19920;-71
2021/07/14 04:20:27;;;;;;;;;;;;;;;22.09;60.39;99909.63;2089623;28;20697;-71
2021/07/14 04:21:27;;;;;;;;;;;;;;;22.09;60.51;99912.38;2089754;28;19913;-71
2021/07/14 04:22:27;;;;;;;;;;;;;;;22.10;60.32;99910.50;2088065;28;19912;-71
2021/07/14 04:23:28;;;;;;;;;;;;;;;22.10;60.31;99915.97;2089450;28;20007;-71
2021/07/14 04:24:28;;;;;;;;;;;;;;;22.09;60.33;99908.78;2089950;28;19951;-71
2021/07/14 04:25:28;;;;;;;;;;;;;;;22.09;60.27;99904.16;2089613;28;19920;-71
2021/07/14 04:26:29;;;;;;;;;;;;;;;22.09;60.18;99908.78;2089060;28;19919;-71
2021/07/14 04:27:29;;;;;;;;;;;;;;;22.07;60.44;99908.94;2088468;28;19966;-72
2021/07/14 04:28:32;;;;;;;;;;;;;;;22.09;60.24;99908.78;2088982;28;19924;-71
2021/07/14 04:29:32;;;;;;;;;;;;;;;22.08;60.29;99912.56;2088494;28;20387;-71
2021/07/14 04:30:33;;;;;;;;;;;;;;;22.07;60.29;99917.19;2088684;28;20271;-71
2021/07/14 04:31:34;;;;;;;;;;;;;;;22.07;60.26;99908.94;2097056;28;20375;-71
2021/07/14 04:32:35;;;;;;;;;;;;;;;22.08;60.33;99915.31;2092766;28;20325;-71
2021/07/14 04:33:35;;;;;;;;;;;;;;;22.08;60.17;99918.06;2088660;28;19920;-71
2021/07/14 04:34:35;;;;;;;;;;;;;;;22.07;60.44;99917.19;2087225;28;19912;-71
2021/07/14 04:35:36;;;;;;;;;;;;;;;22.08;60.25;99918.06;2088620;28;19912;-71
2021/07/14 04:36:36;;;;;;;;;;;;;;;22.07;60.22;99916.34;2088767;28;19913;-71
2021/07/14 04:37:37;;;;;;;;;;;;;;;22.07;60.31;99917.19;2088361;28;19919;-71
2021/07/14 04:38:37;;;;;;;;;;;;;;;22.07;60.28;99914.44;2088873;28;19913;-71
2021/07/14 04:39:37;;;;;;;;;;;;;;;22.07;60.31;99921.81;2087451;28;20401;-71
2021/07/14 04:40:38;;;;;;;;;;;;;;;22.08;60.45;99924.41;2087950;28;19913;-71
2021/07/14 04:41:38;;;;;;;;;;;;;;;22.08;60.44;99913.44;2088314;28;19912;-71
2021/07/14 04:42:38;;;;;;;;;;;;;;;22.07;60.41;99922.66;2087946;28;19927;-71
2021/07/14 04:43:39;;;;;;;;;;;;;;;22.06;60.30;99915.47;2087764;28;19913;-71
2021/07/14 04:44:49;;;;;;;;;;;;;;;22.08;60.30;99918.06;2086354;28;19954;-71
2021/07/14 04:45:49;;;;;;;;;;;;;;;22.07;60.44;99910.84;2081028;28;19913;-71
2021/07/14 04:46:49;;;;;;;;;;;;;;;22.07;60.22;99917.19;2088982;28;19963;-72
2021/07/14 04:47:50;;;;;;;;;;;;;;;22.07;60.33;99911.69;2088730;28;19916;-71
2021/07/14 04:48:50;;;;;;;;;;;;;;;22.05;60.52;99911.03;2088326;28;19919;-71
2021/07/14 04:49:50;;;;;;;;;;;;;;;22.06;60.50;99923.72;2082739;28;19917;-71
2021/07/14 04:50:51;;;;;;;;;;;;;;;22.05;60.28;99919.28;2080209;28;20572;-70
2021/07/14 04:51:51;;;;;;;;;;;;;;;22.05;60.27;99919.28;2088734;28;20307;-71
2021/07/14 04:52:52;;;;;;;;;;;;;;;22.05;60.35;99919.28;2087722;28;19921;-71
2021/07/14 04:53:52;;;;;;;;;;;;;;;22.03;60.33;99915.84;2097042;28;19921;-71
2021/07/14 04:54:53;;;;;;;;;;;;;;;22.05;60.45;99916.53;2092376;28;19913;-71
2021/07/14 04:55:53;;;;;;;;;;;;;;;22.05;60.35;99927.50;2088688;28;19980;-71
2021/07/14 04:56:53;;;;;;;;;;;;;;;22.05;60.56;99930.25;2087919;28;19917;-71
2021/07/14 04:57:53;;;;;;;;;;;;;;;22.04;60.23;99928.50;2088143;28;19913;-70
2021/07/14 04:58:54;;;;;;;;;;;;;;;22.05;60.61;99916.53;2088047;28;19924;-71
2021/07/14 04:59:54;;;;;;;;;;;;;;;22.04;60.56;99923.03;2083952;28;19913;-71
2021/07/14 05:00:54;;;;;;;;;;;;;;;22.05;60.62;99927.50;2088739;28;19986;-71
2021/07/14 05:01:55;;;;;;;;;;;;;;;22.05;60.58;99928.34;2088160;28;19929;-71
2021/07/14 05:02:56;;;;;;;;;;;;;;;22.05;60.40;99930.25;2087343;28;20300;-71
2021/07/14 05:03:56;;;;;;;;;;;;;;;22.04;60.25;99923.03;2082085;28;20442;-71
2021/07/14 05:04:56;;;;;;;;;;;;;;;22.04;60.64;99931.25;2080204;28;20319;-71
2021/07/14 05:05:57;;;;;;;;;;;;;;;22.03;60.37;99938.66;2080065;28;20276;-71
2021/07/14 05:06:57;;;;;;;;;;;;;;;22.03;60.38;99937.78;2083459;28;20426;-71
2021/07/14 05:07:57;;;;;;;;;;;;;;;22.03;60.39;99932.31;2087274;28;19913;-71
2021/07/14 05:08:58;;;;;;;;;;;;;;;22.02;60.30;99934.19;2083230;28;19913;-71
2021/07/14 05:09:58;;;;;;;;;;;;;;;22.04;60.63;99934.00;2081117;28;20556;-71
2021/07/14 05:10:58;;;;;;;;;;;;;;;22.03;60.36;99941.38;2081384;28;20371;-71
2021/07/14 05:11:59;;;;;;;;;;;;;;;22.04;60.40;99934.00;2085763;28;19919;-71
2021/07/14 05:12:59;;;;;;;;;;;;;;;22.03;60.57;99937.78;2087405;28;19916;-71
2021/07/14 05:13:59;;;;;;;;;;;;;;;22.02;60.56;99927.81;2088221;28;19975;-71
2021/07/14 05:15:00;;;;;;;;;;;;;;;22.02;60.51;99936.94;2088293;28;19959;-70
2021/07/14 05:16:00;;;;;;;;;;;;;;;22.03;60.59;99937.78;2090427;28;19917;-71
2021/07/14 05:17:00;;;;;;;;;;;;;;;22.03;60.56;99940.53;2088566;28;19929;-70
2021/07/14 05:18:01;;;;;;;;;;;;;;;22.01;60.47;99923.38;2088387;28;20270;-71
2021/07/14 05:19:03;;;;;;;;;;;;;;;22.03;60.47;99941.38;2087908;28;19939;-71
2021/07/14 05:20:04;;;;;;;;;;;;;;;22.03;60.53;99940.53;2088455;28;19916;-71
2021/07/14 05:21:05;;;;;;;;;;;;;;;22.02;60.44;99945.19;2087965;28;20330;-71
2021/07/14 05:22:05;;;;;;;;;;;;;;;22.02;60.55;99947.03;2087529;28;19967;-71
2021/07/14 05:23:06;;;;;;;;;;;;;;;22.02;60.51;99944.28;2088871;28;19913;-71
2021/07/14 05:24:06;;;;;;;;;;;;;;;22.03;60.41;99940.53;2088646;28;20379;-71
2021/07/14 05:25:07;;;;;;;;;;;;;;;22.03;60.73;99943.28;2088455;28;19927;-71
2021/07/14 05:26:07;;;;;;;;;;;;;;;22.02;60.54;99949.78;2088438;28;19966;-71
2021/07/14 05:27:08;;;;;;;;;;;;;;;22.02;60.57;99947.03;2087812;28;20349;-71
2021/07/14 05:28:08;;;;;;;;;;;;;;;22.02;60.59;99952.53;2093322;28;19935;-70
2021/07/14 05:29:08;;;;;;;;;;;;;;;22.02;60.47;99952.53;2090627;28;19920;-72
2021/07/14 05:30:09;;;;;;;;;;;;;;;22.02;60.56;99953.41;2088448;28;20282;-71
2021/07/14 05:31:09;;;;;;;;;;;;;;;22.02;60.42;99947.03;2086609;28;20012;-70